sensor_id;sensor_type;location;lat;lon;timestamp;P1;durP1;ratioP1;P2;durP2;ratioP2
5690;SDS011;2870;42.680;23.364;2022-11-15T00:01:07;134.40;;;63.50;;
5690;SDS011;2870;42.680;23.364;2022-11-15T00:03:34;135.13;;;68.30;;
5690;SDS011;2870;42.680;23.364;2022-11-15T00:06:03;135.87;;;69.53;;
5690;SDS011;2870;42.680;23.364;2022-11-15T00:08:30;130.93;;;68.23;;
5690;SDS011;2870;42.680;23.364;2022-11-15T00:10:58;149.93;;;76.37;;
5690;SDS011;2870;42.680;23.364;2022-11-15T00:13:28;143.03;;;68.93;;
5690;SDS011;2870;42.680;23.364;2022-11-15T00:15:56;147.33;;;68.57;;
5690;SDS011;2870;42.680;23.364;2022-11-15T00:18:24;136.93;;;70.17;;
5690;SDS011;2870;42.680;23.364;2022-11-15T00:20:51;127.63;;;63.03;;
5690;SDS011;2870;42.680;23.364;2022-11-15T00:23:19;125.70;;;64.87;;
5690;SDS011;2870;42.680;23.364;2022-11-15T00:25:46;123.73;;;61.80;;
5690;SDS011;2870;42.680;23.364;2022-11-15T00:28:13;126.27;;;64.00;;
5690;SDS011;2870;42.680;23.364;2022-11-15T00:30:39;128.83;;;59.93;;
5690;SDS011;2870;42.680;23.364;2022-11-15T00:33:06;122.77;;;62.93;;
5690;SDS011;2870;42.680;23.364;2022-11-15T00:35:34;105.73;;;58.20;;
5690;SDS011;2870;42.680;23.364;2022-11-15T00:38:02;112.10;;;56.50;;
5690;SDS011;2870;42.680;23.364;2022-11-15T00:40:30;112.67;;;56.90;;
5690;SDS011;2870;42.680;23.364;2022-11-15T00:42:57;119.80;;;58.80;;
5690;SDS011;2870;42.680;23.364;2022-11-15T00:45:25;117.30;;;58.63;;
5690;SDS011;2870;42.680;23.364;2022-11-15T00:47:52;108.20;;;59.70;;
5690;SDS011;2870;42.680;23.364;2022-11-15T00:50:19;103.57;;;55.00;;
5690;SDS011;2870;42.680;23.364;2022-11-15T00:52:45;116.80;;;59.07;;
5690;SDS011;2870;42.680;23.364;2022-11-15T00:55:13;117.73;;;60.13;;
5690;SDS011;2870;42.680;23.364;2022-11-15T00:57:44;132.13;;;62.33;;
5690;SDS011;2870;42.680;23.364;2022-11-15T01:00:12;133.30;;;63.70;;
5690;SDS011;2870;42.680;23.364;2022-11-15T01:02:39;137.07;;;62.53;;
5690;SDS011;2870;42.680;23.364;2022-11-15T01:05:06;125.07;;;59.47;;
5690;SDS011;2870;42.680;23.364;2022-11-15T01:07:34;138.27;;;63.57;;
5690;SDS011;2870;42.680;23.364;2022-11-15T01:10:01;131.10;;;63.67;;
5690;SDS011;2870;42.680;23.364;2022-11-15T01:12:27;122.43;;;61.07;;
5690;SDS011;2870;42.680;23.364;2022-11-15T01:14:56;125.20;;;64.07;;
5690;SDS011;2870;42.680;23.364;2022-11-15T01:17:22;122.57;;;61.83;;
5690;SDS011;2870;42.680;23.364;2022-11-15T01:19:50;117.07;;;56.90;;
5690;SDS011;2870;42.680;23.364;2022-11-15T01:22:16;121.03;;;60.77;;
5690;SDS011;2870;42.680;23.364;2022-11-15T01:24:44;109.50;;;57.80;;
5690;SDS011;2870;42.680;23.364;2022-11-15T01:27:10;127.83;;;61.50;;
5690;SDS011;2870;42.680;23.364;2022-11-15T01:29:37;119.23;;;58.73;;
5690;SDS011;2870;42.680;23.364;2022-11-15T01:32:05;116.60;;;59.03;;
5690;SDS011;2870;42.680;23.364;2022-11-15T01:34:32;116.23;;;55.77;;
5690;SDS011;2870;42.680;23.364;2022-11-15T01:36:59;109.20;;;55.27;;
5690;SDS011;2870;42.680;23.364;2022-11-15T01:39:26;115.33;;;55.70;;
5690;SDS011;2870;42.680;23.364;2022-11-15T01:41:53;112.27;;;56.50;;
5690;SDS011;2870;42.680;23.364;2022-11-15T01:47:13;116.43;;;51.60;;
5690;SDS011;2870;42.680;23.364;2022-11-15T01:49:45;112.50;;;52.23;;
5690;SDS011;2870;42.680;23.364;2022-11-15T01:52:19;103.07;;;52.30;;
5690;SDS011;2870;42.680;23.364;2022-11-15T01:54:48;106.07;;;54.97;;
5690;SDS011;2870;42.680;23.364;2022-11-15T01:57:19;112.40;;;52.00;;
5690;SDS011;2870;42.680;23.364;2022-11-15T01:59:46;115.63;;;54.40;;
5690;SDS011;2870;42.680;23.364;2022-11-15T02:02:14;103.57;;;51.90;;
5690;SDS011;2870;42.680;23.364;2022-11-15T02:04:42;90.77;;;49.60;;
5690;SDS011;2870;42.680;23.364;2022-11-15T02:07:11;108.20;;;53.70;;
5690;SDS011;2870;42.680;23.364;2022-11-15T02:09:42;106.47;;;52.53;;
5690;SDS011;2870;42.680;23.364;2022-11-15T02:12:10;107.23;;;56.17;;
5690;SDS011;2870;42.680;23.364;2022-11-15T02:14:39;128.43;;;62.00;;
5690;SDS011;2870;42.680;23.364;2022-11-15T02:17:16;138.57;;;68.03;;
5690;SDS011;2870;42.680;23.364;2022-11-15T02:20:08;133.60;;;64.47;;
5690;SDS011;2870;42.680;23.364;2022-11-15T02:23:04;147.73;;;73.17;;
5690;SDS011;2870;42.680;23.364;2022-11-15T02:25:50;132.53;;;71.13;;
5690;SDS011;2870;42.680;23.364;2022-11-15T02:28:37;137.57;;;69.53;;
5690;SDS011;2870;42.680;23.364;2022-11-15T02:31:17;158.57;;;72.87;;
5690;SDS011;2870;42.680;23.364;2022-11-15T02:33:50;153.90;;;72.30;;
5690;SDS011;2870;42.680;23.364;2022-11-15T02:36:28;133.33;;;72.90;;
5690;SDS011;2870;42.680;23.364;2022-11-15T02:39:03;143.67;;;70.87;;
5690;SDS011;2870;42.680;23.364;2022-11-15T02:41:39;148.13;;;75.30;;
5690;SDS011;2870;42.680;23.364;2022-11-15T02:44:13;130.27;;;69.33;;
5690;SDS011;2870;42.680;23.364;2022-11-15T02:46:47;161.13;;;77.30;;
5690;SDS011;2870;42.680;23.364;2022-11-15T02:49:35;184.67;;;82.13;;
5690;SDS011;2870;42.680;23.364;2022-11-15T02:52:03;154.83;;;76.73;;
5690;SDS011;2870;42.680;23.364;2022-11-15T02:54:31;160.97;;;78.00;;
5690;SDS011;2870;42.680;23.364;2022-11-15T02:57:00;144.57;;;74.43;;
5690;SDS011;2870;42.680;23.364;2022-11-15T02:59:35;144.77;;;72.17;;
5690;SDS011;2870;42.680;23.364;2022-11-15T03:02:15;176.10;;;83.50;;
5690;SDS011;2870;42.680;23.364;2022-11-15T03:04:51;178.80;;;82.20;;
5690;SDS011;2870;42.680;23.364;2022-11-15T03:07:22;153.53;;;70.00;;
5690;SDS011;2870;42.680;23.364;2022-11-15T03:09:56;154.93;;;72.97;;
5690;SDS011;2870;42.680;23.364;2022-11-15T03:12:33;143.33;;;63.50;;
5690;SDS011;2870;42.680;23.364;2022-11-15T03:15:05;138.90;;;63.63;;
5690;SDS011;2870;42.680;23.364;2022-11-15T03:17:38;145.40;;;63.50;;
5690;SDS011;2870;42.680;23.364;2022-11-15T03:20:09;136.43;;;60.27;;
5690;SDS011;2870;42.680;23.364;2022-11-15T03:22:40;140.37;;;60.73;;
5690;SDS011;2870;42.680;23.364;2022-11-15T03:25:11;129.63;;;57.20;;
5690;SDS011;2870;42.680;23.364;2022-11-15T03:27:44;132.17;;;58.90;;
5690;SDS011;2870;42.680;23.364;2022-11-15T03:30:17;122.33;;;58.90;;
5690;SDS011;2870;42.680;23.364;2022-11-15T03:32:46;122.20;;;60.67;;
5690;SDS011;2870;42.680;23.364;2022-11-15T03:35:17;138.90;;;63.60;;
5690;SDS011;2870;42.680;23.364;2022-11-15T03:37:54;128.97;;;56.13;;
5690;SDS011;2870;42.680;23.364;2022-11-15T03:40:26;127.93;;;54.80;;
5690;SDS011;2870;42.680;23.364;2022-11-15T03:42:59;132.37;;;57.00;;
5690;SDS011;2870;42.680;23.364;2022-11-15T03:45:31;131.10;;;54.23;;
5690;SDS011;2870;42.680;23.364;2022-11-15T03:48:05;118.37;;;52.60;;
5690;SDS011;2870;42.680;23.364;2022-11-15T03:50:37;98.30;;;49.50;;
5690;SDS011;2870;42.680;23.364;2022-11-15T03:53:04;110.40;;;48.97;;
5690;SDS011;2870;42.680;23.364;2022-11-15T03:55:32;109.00;;;49.07;;
5690;SDS011;2870;42.680;23.364;2022-11-15T03:58:00;110.47;;;49.40;;
5690;SDS011;2870;42.680;23.364;2022-11-15T04:00:27;110.80;;;49.63;;
5690;SDS011;2870;42.680;23.364;2022-11-15T04:02:55;98.03;;;48.00;;
5690;SDS011;2870;42.680;23.364;2022-11-15T04:05:23;101.77;;;46.00;;
5690;SDS011;2870;42.680;23.364;2022-11-15T04:07:50;95.93;;;47.67;;
5690;SDS011;2870;42.680;23.364;2022-11-15T04:10:18;98.63;;;47.67;;
5690;SDS011;2870;42.680;23.364;2022-11-15T04:12:45;94.73;;;46.90;;
5690;SDS011;2870;42.680;23.364;2022-11-15T04:15:13;92.63;;;44.60;;
5690;SDS011;2870;42.680;23.364;2022-11-15T04:17:42;100.30;;;47.97;;
5690;SDS011;2870;42.680;23.364;2022-11-15T04:20:11;92.80;;;45.67;;
5690;SDS011;2870;42.680;23.364;2022-11-15T04:22:58;85.73;;;43.87;;
5690;SDS011;2870;42.680;23.364;2022-11-15T04:25:43;81.77;;;41.30;;
5690;SDS011;2870;42.680;23.364;2022-11-15T04:28:11;78.20;;;42.40;;
5690;SDS011;2870;42.680;23.364;2022-11-15T04:30:38;69.60;;;38.97;;
5690;SDS011;2870;42.680;23.364;2022-11-15T04:33:05;73.67;;;39.50;;
5690;SDS011;2870;42.680;23.364;2022-11-15T04:35:32;67.40;;;38.10;;
5690;SDS011;2870;42.680;23.364;2022-11-15T04:38:00;74.10;;;40.87;;
5690;SDS011;2870;42.680;23.364;2022-11-15T04:40:28;82.23;;;40.03;;
5690;SDS011;2870;42.680;23.364;2022-11-15T04:42:55;67.60;;;41.17;;
5690;SDS011;2870;42.680;23.364;2022-11-15T04:45:22;68.70;;;38.23;;
5690;SDS011;2870;42.680;23.364;2022-11-15T04:47:49;79.83;;;42.03;;
5690;SDS011;2870;42.680;23.364;2022-11-15T04:50:16;73.97;;;38.20;;
5690;SDS011;2870;42.680;23.364;2022-11-15T04:52:43;67.90;;;36.17;;
5690;SDS011;2870;42.680;23.364;2022-11-15T04:55:18;65.67;;;33.97;;
5690;SDS011;2870;42.680;23.364;2022-11-15T04:57:45;73.73;;;35.47;;
5690;SDS011;2870;42.680;23.364;2022-11-15T05:00:12;70.67;;;35.17;;
5690;SDS011;2870;42.680;23.364;2022-11-15T05:02:41;77.63;;;36.07;;
5690;SDS011;2870;42.680;23.364;2022-11-15T05:05:25;73.37;;;35.83;;
5690;SDS011;2870;42.680;23.364;2022-11-15T05:07:52;82.97;;;34.10;;
5690;SDS011;2870;42.680;23.364;2022-11-15T05:10:20;71.03;;;33.70;;
5690;SDS011;2870;42.680;23.364;2022-11-15T05:12:47;61.40;;;32.53;;
5690;SDS011;2870;42.680;23.364;2022-11-15T05:15:14;76.80;;;35.80;;
5690;SDS011;2870;42.680;23.364;2022-11-15T05:17:41;81.87;;;34.30;;
5690;SDS011;2870;42.680;23.364;2022-11-15T05:20:08;72.20;;;33.13;;
5690;SDS011;2870;42.680;23.364;2022-11-15T05:22:36;67.63;;;31.90;;
5690;SDS011;2870;42.680;23.364;2022-11-15T05:25:03;76.73;;;27.80;;
5690;SDS011;2870;42.680;23.364;2022-11-15T05:27:32;55.57;;;26.33;;
5690;SDS011;2870;42.680;23.364;2022-11-15T05:29:59;71.83;;;26.50;;
5690;SDS011;2870;42.680;23.364;2022-11-15T05:32:26;57.13;;;25.90;;
5690;SDS011;2870;42.680;23.364;2022-11-15T05:34:54;72.87;;;26.30;;
5690;SDS011;2870;42.680;23.364;2022-11-15T05:37:21;51.80;;;22.00;;
5690;SDS011;2870;42.680;23.364;2022-11-15T05:39:47;52.40;;;24.63;;
5690;SDS011;2870;42.680;23.364;2022-11-15T05:42:15;81.27;;;25.77;;
5690;SDS011;2870;42.680;23.364;2022-11-15T05:44:44;50.07;;;23.10;;
5690;SDS011;2870;42.680;23.364;2022-11-15T05:47:18;53.53;;;21.03;;
5690;SDS011;2870;42.680;23.364;2022-11-15T05:49:48;82.20;;;23.00;;
5690;SDS011;2870;42.680;23.364;2022-11-15T05:52:19;44.17;;;22.87;;
5690;SDS011;2870;42.680;23.364;2022-11-15T05:54:49;59.97;;;23.60;;
5690;SDS011;2870;42.680;23.364;2022-11-15T05:57:16;42.40;;;20.87;;
5690;SDS011;2870;42.680;23.364;2022-11-15T05:59:45;55.30;;;22.90;;
5690;SDS011;2870;42.680;23.364;2022-11-15T06:02:11;44.50;;;22.17;;
5690;SDS011;2870;42.680;23.364;2022-11-15T06:04:38;63.67;;;23.00;;
5690;SDS011;2870;42.680;23.364;2022-11-15T06:07:05;66.90;;;24.67;;
5690;SDS011;2870;42.680;23.364;2022-11-15T06:09:32;56.17;;;25.20;;
5690;SDS011;2870;42.680;23.364;2022-11-15T06:11:59;59.27;;;27.00;;
5690;SDS011;2870;42.680;23.364;2022-11-15T06:14:26;69.43;;;26.57;;
5690;SDS011;2870;42.680;23.364;2022-11-15T06:16:54;52.17;;;26.57;;
5690;SDS011;2870;42.680;23.364;2022-11-15T06:19:21;61.27;;;26.83;;
5690;SDS011;2870;42.680;23.364;2022-11-15T06:21:48;56.37;;;25.77;;
5690;SDS011;2870;42.680;23.364;2022-11-15T06:24:14;63.53;;;27.03;;
5690;SDS011;2870;42.680;23.364;2022-11-15T06:26:42;61.87;;;27.37;;
5690;SDS011;2870;42.680;23.364;2022-11-15T06:29:08;61.90;;;26.53;;
5690;SDS011;2870;42.680;23.364;2022-11-15T06:31:35;68.30;;;26.50;;
5690;SDS011;2870;42.680;23.364;2022-11-15T06:34:03;59.73;;;25.73;;
5690;SDS011;2870;42.680;23.364;2022-11-15T06:36:30;73.30;;;25.20;;
5690;SDS011;2870;42.680;23.364;2022-11-15T06:38:57;60.00;;;25.80;;
5690;SDS011;2870;42.680;23.364;2022-11-15T06:41:24;59.63;;;24.73;;
5690;SDS011;2870;42.680;23.364;2022-11-15T06:43:50;51.87;;;22.80;;
5690;SDS011;2870;42.680;23.364;2022-11-15T06:46:17;47.23;;;24.50;;
5690;SDS011;2870;42.680;23.364;2022-11-15T06:48:44;43.93;;;23.43;;
5690;SDS011;2870;42.680;23.364;2022-11-15T06:51:12;59.93;;;26.07;;
5690;SDS011;2870;42.680;23.364;2022-11-15T06:53:39;54.10;;;25.67;;
5690;SDS011;2870;42.680;23.364;2022-11-15T06:56:06;53.27;;;24.70;;
5690;SDS011;2870;42.680;23.364;2022-11-15T06:58:34;59.10;;;23.30;;
5690;SDS011;2870;42.680;23.364;2022-11-15T07:01:01;63.53;;;24.53;;
5690;SDS011;2870;42.680;23.364;2022-11-15T07:03:29;65.87;;;25.83;;
5690;SDS011;2870;42.680;23.364;2022-11-15T07:05:56;64.33;;;26.87;;
5690;SDS011;2870;42.680;23.364;2022-11-15T07:08:26;56.73;;;26.00;;
5690;SDS011;2870;42.680;23.364;2022-11-15T07:10:54;51.20;;;24.03;;
5690;SDS011;2870;42.680;23.364;2022-11-15T07:13:26;56.83;;;25.23;;
5690;SDS011;2870;42.680;23.364;2022-11-15T07:15:54;52.47;;;22.47;;
5690;SDS011;2870;42.680;23.364;2022-11-15T07:18:21;51.67;;;23.00;;
5690;SDS011;2870;42.680;23.364;2022-11-15T07:20:48;49.47;;;21.90;;
5690;SDS011;2870;42.680;23.364;2022-11-15T07:23:15;47.43;;;23.63;;
5690;SDS011;2870;42.680;23.364;2022-11-15T07:25:43;51.30;;;25.97;;
5690;SDS011;2870;42.680;23.364;2022-11-15T07:28:09;56.07;;;23.90;;
5690;SDS011;2870;42.680;23.364;2022-11-15T07:30:36;48.30;;;25.50;;
5690;SDS011;2870;42.680;23.364;2022-11-15T07:33:03;52.00;;;23.20;;
5690;SDS011;2870;42.680;23.364;2022-11-15T07:35:30;60.40;;;26.03;;
5690;SDS011;2870;42.680;23.364;2022-11-15T07:37:57;57.67;;;26.90;;
5690;SDS011;2870;42.680;23.364;2022-11-15T07:40:25;60.63;;;28.00;;
5690;SDS011;2870;42.680;23.364;2022-11-15T07:42:54;60.13;;;27.20;;
5690;SDS011;2870;42.680;23.364;2022-11-15T07:45:25;57.60;;;26.67;;
5690;SDS011;2870;42.680;23.364;2022-11-15T07:47:52;52.10;;;26.97;;
5690;SDS011;2870;42.680;23.364;2022-11-15T07:50:21;51.90;;;27.40;;
5690;SDS011;2870;42.680;23.364;2022-11-15T07:52:52;58.47;;;26.77;;
5690;SDS011;2870;42.680;23.364;2022-11-15T07:55:20;66.67;;;29.27;;
5690;SDS011;2870;42.680;23.364;2022-11-15T07:57:46;69.83;;;27.20;;
5690;SDS011;2870;42.680;23.364;2022-11-15T08:00:17;67.03;;;28.47;;
5690;SDS011;2870;42.680;23.364;2022-11-15T08:02:44;61.40;;;28.53;;
5690;SDS011;2870;42.680;23.364;2022-11-15T08:05:11;64.37;;;28.93;;
5690;SDS011;2870;42.680;23.364;2022-11-15T08:07:38;62.30;;;29.50;;
5690;SDS011;2870;42.680;23.364;2022-11-15T08:10:05;66.47;;;30.80;;
5690;SDS011;2870;42.680;23.364;2022-11-15T08:12:33;68.13;;;31.63;;
5690;SDS011;2870;42.680;23.364;2022-11-15T08:15:00;71.27;;;30.80;;
5690;SDS011;2870;42.680;23.364;2022-11-15T08:17:28;80.07;;;32.97;;
5690;SDS011;2870;42.680;23.364;2022-11-15T08:19:58;68.23;;;32.43;;
5690;SDS011;2870;42.680;23.364;2022-11-15T08:22:28;63.33;;;31.63;;
5690;SDS011;2870;42.680;23.364;2022-11-15T08:24:55;68.07;;;33.20;;
5690;SDS011;2870;42.680;23.364;2022-11-15T08:27:22;65.53;;;31.57;;
5690;SDS011;2870;42.680;23.364;2022-11-15T08:29:49;71.10;;;33.77;;
5690;SDS011;2870;42.680;23.364;2022-11-15T08:32:15;72.23;;;32.60;;
5690;SDS011;2870;42.680;23.364;2022-11-15T08:34:44;78.80;;;35.60;;
5690;SDS011;2870;42.680;23.364;2022-11-15T08:37:11;70.67;;;32.83;;
5690;SDS011;2870;42.680;23.364;2022-11-15T08:39:37;84.90;;;37.43;;
5690;SDS011;2870;42.680;23.364;2022-11-15T08:42:04;87.37;;;36.10;;
5690;SDS011;2870;42.680;23.364;2022-11-15T08:44:31;66.50;;;33.70;;
5690;SDS011;2870;42.680;23.364;2022-11-15T08:46:58;78.20;;;35.57;;
5690;SDS011;2870;42.680;23.364;2022-11-15T08:49:24;74.77;;;33.00;;
5690;SDS011;2870;42.680;23.364;2022-11-15T08:51:52;75.67;;;32.83;;
5690;SDS011;2870;42.680;23.364;2022-11-15T08:54:19;89.50;;;36.23;;
5690;SDS011;2870;42.680;23.364;2022-11-15T08:56:46;69.93;;;34.27;;
5690;SDS011;2870;42.680;23.364;2022-11-15T08:59:13;80.53;;;34.37;;
5690;SDS011;2870;42.680;23.364;2022-11-15T09:01:40;89.93;;;37.57;;
5690;SDS011;2870;42.680;23.364;2022-11-15T09:04:07;82.53;;;36.70;;
5690;SDS011;2870;42.680;23.364;2022-11-15T09:06:34;87.13;;;39.70;;
5690;SDS011;2870;42.680;23.364;2022-11-15T09:09:02;79.77;;;41.03;;
5690;SDS011;2870;42.680;23.364;2022-11-15T09:11:29;76.93;;;39.37;;
5690;SDS011;2870;42.680;23.364;2022-11-15T09:13:56;83.97;;;38.67;;
5690;SDS011;2870;42.680;23.364;2022-11-15T09:16:23;106.60;;;40.30;;
5690;SDS011;2870;42.680;23.364;2022-11-15T09:18:50;95.73;;;41.90;;
5690;SDS011;2870;42.680;23.364;2022-11-15T09:21:16;86.50;;;42.10;;
5690;SDS011;2870;42.680;23.364;2022-11-15T09:23:43;99.07;;;43.90;;
5690;SDS011;2870;42.680;23.364;2022-11-15T09:26:12;103.13;;;42.20;;
5690;SDS011;2870;42.680;23.364;2022-11-15T09:28:39;99.37;;;43.60;;
5690;SDS011;2870;42.680;23.364;2022-11-15T09:31:07;116.00;;;46.30;;
5690;SDS011;2870;42.680;23.364;2022-11-15T09:33:34;101.70;;;44.27;;
5690;SDS011;2870;42.680;23.364;2022-11-15T09:36:01;97.70;;;43.80;;
5690;SDS011;2870;42.680;23.364;2022-11-15T09:38:31;101.53;;;43.63;;
5690;SDS011;2870;42.680;23.364;2022-11-15T09:41:08;101.67;;;46.07;;
5690;SDS011;2870;42.680;23.364;2022-11-15T09:43:52;124.90;;;47.87;;
5690;SDS011;2870;42.680;23.364;2022-11-15T09:46:32;118.70;;;48.43;;
5690;SDS011;2870;42.680;23.364;2022-11-15T09:49:07;94.13;;;43.23;;
5690;SDS011;2870;42.680;23.364;2022-11-15T09:51:37;105.17;;;45.90;;
5690;SDS011;2870;42.680;23.364;2022-11-15T09:54:13;98.60;;;45.50;;
5690;SDS011;2870;42.680;23.364;2022-11-15T09:56:48;103.80;;;46.03;;
5690;SDS011;2870;42.680;23.364;2022-11-15T09:59:21;106.50;;;43.57;;
5690;SDS011;2870;42.680;23.364;2022-11-15T10:02:01;89.03;;;43.30;;
5690;SDS011;2870;42.680;23.364;2022-11-15T10:04:41;89.57;;;42.23;;
5690;SDS011;2870;42.680;23.364;2022-11-15T10:07:12;88.50;;;43.10;;
5690;SDS011;2870;42.680;23.364;2022-11-15T10:09:42;88.87;;;43.80;;
5690;SDS011;2870;42.680;23.364;2022-11-15T10:12:15;82.17;;;41.00;;
5690;SDS011;2870;42.680;23.364;2022-11-15T10:14:43;89.60;;;43.57;;
5690;SDS011;2870;42.680;23.364;2022-11-15T10:17:15;85.13;;;41.80;;
5690;SDS011;2870;42.680;23.364;2022-11-15T10:20:02;78.90;;;43.50;;
5690;SDS011;2870;42.680;23.364;2022-11-15T10:22:38;79.90;;;40.97;;
5690;SDS011;2870;42.680;23.364;2022-11-15T10:25:21;99.83;;;44.83;;
5690;SDS011;2870;42.680;23.364;2022-11-15T10:27:55;86.40;;;43.37;;
5690;SDS011;2870;42.680;23.364;2022-11-15T10:30:29;80.27;;;43.87;;
5690;SDS011;2870;42.680;23.364;2022-11-15T10:32:58;86.73;;;42.47;;
5690;SDS011;2870;42.680;23.364;2022-11-15T10:35:36;74.17;;;38.83;;
5690;SDS011;2870;42.680;23.364;2022-11-15T10:38:04;87.13;;;43.63;;
5690;SDS011;2870;42.680;23.364;2022-11-15T10:40:32;92.10;;;41.73;;
5690;SDS011;2870;42.680;23.364;2022-11-15T10:43:10;89.30;;;45.60;;
5690;SDS011;2870;42.680;23.364;2022-11-15T10:45:40;78.90;;;41.80;;
5690;SDS011;2870;42.680;23.364;2022-11-15T10:48:21;85.23;;;42.17;;
5690;SDS011;2870;42.680;23.364;2022-11-15T10:50:52;95.60;;;43.90;;
5690;SDS011;2870;42.680;23.364;2022-11-15T10:56:11;82.37;;;41.67;;
5690;SDS011;2870;42.680;23.364;2022-11-15T10:58:42;90.60;;;43.90;;
5690;SDS011;2870;42.680;23.364;2022-11-15T11:01:17;86.23;;;41.63;;
5690;SDS011;2870;42.680;23.364;2022-11-15T11:03:45;88.67;;;42.03;;
5690;SDS011;2870;42.680;23.364;2022-11-15T11:06:24;80.30;;;42.93;;
5690;SDS011;2870;42.680;23.364;2022-11-15T11:08:55;86.43;;;43.13;;
5690;SDS011;2870;42.680;23.364;2022-11-15T11:11:24;84.00;;;41.93;;
5690;SDS011;2870;42.680;23.364;2022-11-15T11:13:52;81.63;;;42.03;;
5690;SDS011;2870;42.680;23.364;2022-11-15T11:16:22;82.50;;;41.17;;
5690;SDS011;2870;42.680;23.364;2022-11-15T11:19:17;89.70;;;42.70;;
5690;SDS011;2870;42.680;23.364;2022-11-15T11:21:57;82.27;;;39.57;;
5690;SDS011;2870;42.680;23.364;2022-11-15T11:24:31;80.43;;;40.07;;
5690;SDS011;2870;42.680;23.364;2022-11-15T11:27:08;82.77;;;40.00;;
5690;SDS011;2870;42.680;23.364;2022-11-15T11:29:58;82.37;;;37.53;;
5690;SDS011;2870;42.680;23.364;2022-11-15T11:32:46;83.30;;;41.37;;
5690;SDS011;2870;42.680;23.364;2022-11-15T11:35:23;70.97;;;38.27;;
5690;SDS011;2870;42.680;23.364;2022-11-15T11:37:57;70.53;;;35.60;;
5690;SDS011;2870;42.680;23.364;2022-11-15T11:40:32;64.43;;;37.80;;
5690;SDS011;2870;42.680;23.364;2022-11-15T11:43:05;75.30;;;40.10;;
5690;SDS011;2870;42.680;23.364;2022-11-15T11:45:44;87.73;;;42.07;;
5690;SDS011;2870;42.680;23.364;2022-11-15T11:48:30;86.93;;;43.40;;
5690;SDS011;2870;42.680;23.364;2022-11-15T11:51:08;81.03;;;41.60;;
5690;SDS011;2870;42.680;23.364;2022-11-15T11:53:41;78.90;;;40.67;;
5690;SDS011;2870;42.680;23.364;2022-11-15T11:56:15;76.03;;;40.60;;
5690;SDS011;2870;42.680;23.364;2022-11-15T11:58:52;71.60;;;41.53;;
5690;SDS011;2870;42.680;23.364;2022-11-15T12:01:23;78.23;;;40.87;;
5690;SDS011;2870;42.680;23.364;2022-11-15T12:03:55;79.30;;;38.13;;
5690;SDS011;2870;42.680;23.364;2022-11-15T12:06:27;73.90;;;37.77;;
5690;SDS011;2870;42.680;23.364;2022-11-15T12:09:00;68.70;;;36.90;;
5690;SDS011;2870;42.680;23.364;2022-11-15T12:11:34;72.63;;;38.33;;
5690;SDS011;2870;42.680;23.364;2022-11-15T12:14:11;67.47;;;38.10;;
5690;SDS011;2870;42.680;23.364;2022-11-15T12:16:44;70.60;;;40.13;;
5690;SDS011;2870;42.680;23.364;2022-11-15T12:19:11;70.13;;;38.00;;
5690;SDS011;2870;42.680;23.364;2022-11-15T12:21:40;87.03;;;39.27;;
5690;SDS011;2870;42.680;23.364;2022-11-15T12:24:13;79.17;;;40.97;;
5690;SDS011;2870;42.680;23.364;2022-11-15T12:26:46;73.73;;;38.83;;
5690;SDS011;2870;42.680;23.364;2022-11-15T12:29:19;74.10;;;41.93;;
5690;SDS011;2870;42.680;23.364;2022-11-15T12:31:56;81.83;;;44.23;;
5690;SDS011;2870;42.680;23.364;2022-11-15T12:34:42;89.80;;;43.10;;
5690;SDS011;2870;42.680;23.364;2022-11-15T12:46:08;83.07;;;40.00;;
5690;SDS011;2870;42.680;23.364;2022-11-15T12:57:37;81.13;;;41.10;;
5690;SDS011;2870;42.680;23.364;2022-11-15T13:00:35;77.90;;;40.97;;
5690;SDS011;2870;42.680;23.364;2022-11-15T13:08:58;83.60;;;41.63;;
5690;SDS011;2870;42.680;23.364;2022-11-15T13:17:32;82.93;;;42.83;;
5690;SDS011;2870;42.680;23.364;2022-11-15T13:23:01;88.47;;;45.10;;
5690;SDS011;2870;42.680;23.364;2022-11-15T13:25:42;85.50;;;43.00;;
5690;SDS011;2870;42.680;23.364;2022-11-15T13:28:24;79.40;;;46.17;;
5690;SDS011;2870;42.680;23.364;2022-11-15T13:30:58;83.87;;;44.90;;
5690;SDS011;2870;42.680;23.364;2022-11-15T13:33:28;79.93;;;42.97;;
5690;SDS011;2870;42.680;23.364;2022-11-15T13:35:58;84.27;;;44.73;;
5690;SDS011;2870;42.680;23.364;2022-11-15T13:38:29;83.60;;;45.40;;
5690;SDS011;2870;42.680;23.364;2022-11-15T13:40:58;87.17;;;47.20;;
5690;SDS011;2870;42.680;23.364;2022-11-15T13:43:27;97.03;;;51.03;;
5690;SDS011;2870;42.680;23.364;2022-11-15T13:46:04;96.70;;;50.43;;
5690;SDS011;2870;42.680;23.364;2022-11-15T13:48:39;110.97;;;46.67;;
5690;SDS011;2870;42.680;23.364;2022-11-15T13:51:09;94.37;;;48.50;;
5690;SDS011;2870;42.680;23.364;2022-11-15T13:53:45;94.10;;;50.27;;
5690;SDS011;2870;42.680;23.364;2022-11-15T13:56:15;97.40;;;50.47;;
5690;SDS011;2870;42.680;23.364;2022-11-15T13:58:43;91.17;;;47.60;;
5690;SDS011;2870;42.680;23.364;2022-11-15T14:01:13;94.73;;;48.43;;
5690;SDS011;2870;42.680;23.364;2022-11-15T14:03:47;91.37;;;47.73;;
5690;SDS011;2870;42.680;23.364;2022-11-15T14:06:17;91.50;;;49.97;;
5690;SDS011;2870;42.680;23.364;2022-11-15T14:08:59;96.57;;;48.73;;
5690;SDS011;2870;42.680;23.364;2022-11-15T14:11:28;96.50;;;47.43;;
5690;SDS011;2870;42.680;23.364;2022-11-15T14:14:02;89.13;;;45.10;;
5690;SDS011;2870;42.680;23.364;2022-11-15T14:16:38;96.30;;;47.57;;
5690;SDS011;2870;42.680;23.364;2022-11-15T14:19:08;92.43;;;47.77;;
5690;SDS011;2870;42.680;23.364;2022-11-15T14:21:37;99.67;;;48.67;;
5690;SDS011;2870;42.680;23.364;2022-11-15T14:24:29;93.70;;;45.87;;
5690;SDS011;2870;42.680;23.364;2022-11-15T14:26:57;91.43;;;48.10;;
5690;SDS011;2870;42.680;23.364;2022-11-15T14:29:42;83.77;;;45.33;;
5690;SDS011;2870;42.680;23.364;2022-11-15T14:32:12;92.67;;;47.87;;
5690;SDS011;2870;42.680;23.364;2022-11-15T14:34:42;81.57;;;47.50;;
5690;SDS011;2870;42.680;23.364;2022-11-15T14:37:16;77.77;;;44.27;;
5690;SDS011;2870;42.680;23.364;2022-11-15T14:39:47;84.63;;;45.93;;
5690;SDS011;2870;42.680;23.364;2022-11-15T14:42:14;85.33;;;46.60;;
5690;SDS011;2870;42.680;23.364;2022-11-15T14:44:41;100.97;;;48.40;;
5690;SDS011;2870;42.680;23.364;2022-11-15T14:47:08;89.47;;;49.10;;
5690;SDS011;2870;42.680;23.364;2022-11-15T14:49:35;94.97;;;49.13;;
5690;SDS011;2870;42.680;23.364;2022-11-15T14:52:02;85.10;;;46.00;;
5690;SDS011;2870;42.680;23.364;2022-11-15T14:54:28;99.53;;;47.80;;
5690;SDS011;2870;42.680;23.364;2022-11-15T14:56:57;97.57;;;48.47;;
5690;SDS011;2870;42.680;23.364;2022-11-15T14:59:24;92.87;;;48.80;;
5690;SDS011;2870;42.680;23.364;2022-11-15T15:01:50;84.30;;;46.37;;
5690;SDS011;2870;42.680;23.364;2022-11-15T15:04:17;89.00;;;49.10;;
5690;SDS011;2870;42.680;23.364;2022-11-15T15:06:44;114.43;;;50.47;;
5690;SDS011;2870;42.680;23.364;2022-11-15T15:09:11;98.47;;;49.50;;
5690;SDS011;2870;42.680;23.364;2022-11-15T15:11:37;103.73;;;51.07;;
5690;SDS011;2870;42.680;23.364;2022-11-15T15:14:07;111.10;;;48.17;;
5690;SDS011;2870;42.680;23.364;2022-11-15T15:16:34;88.97;;;46.50;;
5690;SDS011;2870;42.680;23.364;2022-11-15T15:19:01;93.50;;;45.20;;
5690;SDS011;2870;42.680;23.364;2022-11-15T15:21:28;87.80;;;44.60;;
5690;SDS011;2870;42.680;23.364;2022-11-15T15:23:56;89.13;;;44.70;;
5690;SDS011;2870;42.680;23.364;2022-11-15T15:26:23;82.50;;;44.50;;
5690;SDS011;2870;42.680;23.364;2022-11-15T15:28:50;93.77;;;46.30;;